createdAt,value
2023-05-17T00:00:51.467Z,10.77
2023-05-17T00:03:18.973Z,11.02
2023-05-17T00:05:46.521Z,11.82
2023-05-17T00:12:09.731Z,10.27
2023-05-17T00:14:37.153Z,10.60
2023-05-17T00:17:04.608Z,9.73
2023-05-17T00:19:31.963Z,11.15
2023-05-17T00:21:59.324Z,10.73
2023-05-17T00:24:27.370Z,10.15
2023-05-17T00:26:54.685Z,11.00
2023-05-17T00:29:22.012Z,11.50
2023-05-17T00:31:49.344Z,11.95
2023-05-17T00:34:16.708Z,11.05
2023-05-17T00:36:44.022Z,11.82
2023-05-17T00:39:11.548Z,10.55
2023-05-17T00:41:38.894Z,10.85
2023-05-17T00:44:06.354Z,10.98
2023-05-17T00:46:33.985Z,11.98
2023-05-17T00:49:01.457Z,10.05
2023-05-17T00:51:29.689Z,10.32
2023-05-17T00:53:57.321Z,9.90
2023-05-17T00:56:25.531Z,10.30
2023-05-17T00:58:54.077Z,9.60
2023-05-17T01:01:21.639Z,11.15
2023-05-17T01:03:49.835Z,9.07
2023-05-17T01:06:17.372Z,9.98
2023-05-17T01:09:00.637Z,10.82
2023-05-17T01:11:44.709Z,9.90
2023-05-17T01:14:42.471Z,9.45
2023-05-17T01:17:30.847Z,10.65
2023-05-17T01:20:09.786Z,9.57
2023-05-17T01:23:19.094Z,9.07
2023-05-17T01:26:01.605Z,9.90
2023-05-17T01:28:31.393Z,9.50
2023-05-17T01:31:02.651Z,8.20
2023-05-17T01:33:31.254Z,9.57
2023-05-17T01:35:58.749Z,9.32
2023-05-17T01:38:26.152Z,7.82
2023-05-17T01:41:08.028Z,9.05
2023-05-17T01:44:26.478Z,8.50
2023-05-17T01:49:40.587Z,8.45
2023-05-17T01:52:13.609Z,7.72
2023-05-17T01:55:09.165Z,8.30
2023-05-17T01:57:37.548Z,7.50
2023-05-17T02:00:09.877Z,8.13
2023-05-17T02:02:37.322Z,7.68
2023-05-17T02:05:05.112Z,7.22
2023-05-17T02:07:32.665Z,6.90
2023-05-17T02:10:00.129Z,6.60
2023-05-17T02:12:27.701Z,8.15
2023-05-17T02:14:55.094Z,6.70
2023-05-17T02:17:23.051Z,7.82
2023-05-17T02:19:50.649Z,7.20
2023-05-17T02:22:18.055Z,7.32
2023-05-17T02:24:46.803Z,6.88
2023-05-17T02:27:14.133Z,7.07
2023-05-17T02:29:41.458Z,6.75
2023-05-17T02:32:09.110Z,6.60
2023-05-17T02:34:36.484Z,7.80
2023-05-17T02:41:01.179Z,7.03
2023-05-17T02:43:28.589Z,7.07
2023-05-17T02:45:55.968Z,6.75
2023-05-17T02:48:23.336Z,6.80
2023-05-17T02:50:51.226Z,7.43
2023-05-17T02:53:18.752Z,8.55
2023-05-17T02:55:46.060Z,6.70
2023-05-17T02:58:13.970Z,7.18
2023-05-17T03:00:46.277Z,6.65
2023-05-17T03:03:14.067Z,9.05
2023-05-17T03:05:41.488Z,6.63
2023-05-17T03:08:08.902Z,7.40
2023-05-17T03:10:36.240Z,7.65
2023-05-17T03:13:03.689Z,6.75
2023-05-17T03:15:31.480Z,6.93
2023-05-17T03:17:59.044Z,7.00
2023-05-17T03:20:26.446Z,6.72
2023-05-17T03:22:53.785Z,7.55
2023-05-17T03:25:21.191Z,6.55
2023-05-17T03:27:48.589Z,5.90
2023-05-17T03:30:15.938Z,6.32
2023-05-17T03:32:45.964Z,7.50
2023-05-17T03:35:13.426Z,6.93
2023-05-17T03:37:40.837Z,7.65
2023-05-17T03:40:08.764Z,5.72
2023-05-17T03:42:37.556Z,6.88
2023-05-17T03:45:05.413Z,6.65
2023-05-17T03:47:32.928Z,7.07
2023-05-17T03:50:00.339Z,7.95
2023-05-17T03:52:27.694Z,7.85
2023-05-17T03:54:55.008Z,7.18
2023-05-17T03:57:22.652Z,6.47
2023-05-17T03:59:50.025Z,7.32
2023-05-17T04:02:17.582Z,7.35
2023-05-17T04:04:53.174Z,6.95
2023-05-17T04:07:20.782Z,7.50
2023-05-17T04:09:48.312Z,7.90
2023-05-17T04:12:15.668Z,6.22
2023-05-17T04:14:43.153Z,7.05
2023-05-17T04:17:10.493Z,8.07
2023-05-17T04:19:37.907Z,8.18
2023-05-17T04:22:05.436Z,8.50
2023-05-17T04:24:33.028Z,6.78
2023-05-17T04:27:03.368Z,6.85
2023-05-17T04:29:31.092Z,6.82
2023-05-17T04:31:59.367Z,6.93
2023-05-17T04:34:26.771Z,7.25
2023-05-17T04:36:54.156Z,8.13
2023-05-17T04:39:21.496Z,6.50
2023-05-17T04:41:48.899Z,6.78
2023-05-17T04:44:17.182Z,6.53
2023-05-17T04:46:45.586Z,6.47
2023-05-17T04:49:13.075Z,7.55
2023-05-17T04:51:41.955Z,6.75
2023-05-17T04:54:09.324Z,6.70
2023-05-17T04:56:36.742Z,7.18
2023-05-17T04:59:04.136Z,6.57
2023-05-17T05:01:35.501Z,7.85
2023-05-17T05:04:07.161Z,7.03
2023-05-17T05:06:35.022Z,7.95
2023-05-17T05:09:03.026Z,8.13
2023-05-17T05:11:31.957Z,7.78
2023-05-17T05:13:59.402Z,7.82
2023-05-17T05:16:27.046Z,7.43
2023-05-17T05:18:54.618Z,7.47
2023-05-17T05:21:22.167Z,7.07
2023-05-17T05:23:49.485Z,10.23
2023-05-17T05:26:17.036Z,7.50
2023-05-17T05:28:44.359Z,7.10
2023-05-17T05:31:11.823Z,6.88
2023-05-17T05:33:39.242Z,9.73
2023-05-17T05:36:06.959Z,8.10
2023-05-17T05:38:34.414Z,8.63
2023-05-17T05:41:01.827Z,8.15
2023-05-17T05:43:29.342Z,8.18
2023-05-17T05:45:56.647Z,9.10
2023-05-17T05:48:24.023Z,7.90
2023-05-17T05:50:51.573Z,8.15
2023-05-17T05:53:19.875Z,8.63
2023-05-17T05:55:47.538Z,7.60
2023-05-17T05:58:14.925Z,7.45
2023-05-17T06:00:42.703Z,8.77
2023-05-17T06:03:10.131Z,7.75
2023-05-17T06:05:38.674Z,8.52
2023-05-17T06:08:06.837Z,8.57
2023-05-17T06:10:34.282Z,8.02
2023-05-17T06:13:01.850Z,8.98
2023-05-17T06:15:31.125Z,8.35
2023-05-17T06:17:58.689Z,7.82
2023-05-17T06:20:26.220Z,7.90
2023-05-17T06:22:53.680Z,8.75
2023-05-17T06:25:21.159Z,8.77
2023-05-17T06:27:49.604Z,8.30
2023-05-17T06:30:16.964Z,6.97
2023-05-17T06:32:44.425Z,9.40
2023-05-17T06:35:12.077Z,9.40
2023-05-17T06:37:39.443Z,7.18
2023-05-17T06:40:15.955Z,7.65
2023-05-17T06:42:44.796Z,8.45
2023-05-17T06:45:12.240Z,7.40
2023-05-17T06:47:39.922Z,6.93
2023-05-17T06:50:08.815Z,7.13
2023-05-17T06:52:36.583Z,8.07
2023-05-17T06:55:04.174Z,7.82
2023-05-17T06:57:32.609Z,8.85
2023-05-17T06:59:59.968Z,8.15
2023-05-17T07:02:27.410Z,6.95
2023-05-17T07:04:54.816Z,9.00
2023-05-17T07:07:22.271Z,9.25
2023-05-17T07:09:49.614Z,8.23
2023-05-17T07:12:19.530Z,9.82
2023-05-17T07:14:47.102Z,8.45
2023-05-17T07:17:14.458Z,8.95
2023-05-17T07:19:44.972Z,8.40
2023-05-17T07:22:12.492Z,8.73
2023-05-17T07:24:40.122Z,9.32
2023-05-17T07:27:07.474Z,7.95
2023-05-17T07:29:34.826Z,8.50
2023-05-17T07:32:02.357Z,8.30
2023-05-17T07:34:31.190Z,8.93
2023-05-17T07:36:58.530Z,8.80
2023-05-17T07:39:25.930Z,8.43
2023-05-17T07:41:55.984Z,8.10
2023-05-17T07:44:23.323Z,8.60
2023-05-17T07:46:50.778Z,9.68
2023-05-17T07:49:18.489Z,9.18
2023-05-17T07:51:46.231Z,10.00
2023-05-17T07:54:24.621Z,9.55
2023-05-17T07:56:53.541Z,9.10
2023-05-17T07:59:24.795Z,9.40
2023-05-17T08:01:52.665Z,9.38
2023-05-17T08:04:21.202Z,10.13
2023-05-17T08:06:50.277Z,9.13
2023-05-17T08:09:17.791Z,9.20
2023-05-17T08:11:47.281Z,10.85
2023-05-17T08:14:16.585Z,9.27
2023-05-17T08:16:45.936Z,9.18
2023-05-17T08:19:14.995Z,9.70
2023-05-17T08:21:42.961Z,9.68
2023-05-17T08:24:10.740Z,10.75
2023-05-17T08:26:38.490Z,9.70
2023-05-17T08:29:06.138Z,9.23
2023-05-17T08:31:33.840Z,9.23
2023-05-17T08:34:01.395Z,9.68
2023-05-17T08:36:28.828Z,9.77
2023-05-17T08:38:56.178Z,10.80
2023-05-17T08:41:23.756Z,8.75
2023-05-17T08:43:51.875Z,9.60
2023-05-17T08:46:23.771Z,9.65
2023-05-17T08:48:52.858Z,8.43
2023-05-17T08:51:20.938Z,8.40
2023-05-17T08:53:50.604Z,9.38
2023-05-17T08:56:21.035Z,8.68
2023-05-17T08:58:56.505Z,7.93
2023-05-17T09:01:27.184Z,7.95
2023-05-17T09:03:55.477Z,9.30
2023-05-17T09:06:23.798Z,8.40
2023-05-17T09:08:52.969Z,9.60
2023-05-17T09:11:31.399Z,9.88
2023-05-17T09:14:04.887Z,9.70
2023-05-17T09:16:38.997Z,8.57
2023-05-17T09:19:08.790Z,9.32
2023-05-17T09:21:37.212Z,9.93
2023-05-17T09:24:07.997Z,8.43
2023-05-17T09:26:46.292Z,6.60
2023-05-17T09:29:17.021Z,7.80
2023-05-17T09:31:47.172Z,8.48
2023-05-17T09:34:19.987Z,8.43
2023-05-17T09:36:47.649Z,8.90
2023-05-17T09:39:15.817Z,9.60
2023-05-17T09:41:46.834Z,9.70
2023-05-17T09:44:15.788Z,7.68
2023-05-17T09:46:47.509Z,8.10
2023-05-17T09:49:16.520Z,9.07
2023-05-17T09:51:46.808Z,9.00
2023-05-17T09:54:15.067Z,7.65
2023-05-17T09:56:43.299Z,7.93
2023-05-17T09:59:15.766Z,8.10
2023-05-17T10:01:45.485Z,8.57
2023-05-17T10:04:14.273Z,8.38
2023-05-17T10:06:49.765Z,8.95
2023-05-17T10:09:22.467Z,7.22
2023-05-17T10:11:53.050Z,8.02
2023-05-17T10:14:35.041Z,8.35
2023-05-17T10:17:03.534Z,7.97
2023-05-17T10:19:31.549Z,6.57
2023-05-17T10:22:08.211Z,6.90
2023-05-17T10:27:16.524Z,6.65
2023-05-17T10:29:46.544Z,7.05
2023-05-17T10:32:19.500Z,5.43
2023-05-17T10:35:01.576Z,6.13
2023-05-17T10:37:37.812Z,6.72
2023-05-17T10:40:07.356Z,6.82
2023-05-17T10:42:35.351Z,6.30
2023-05-17T10:45:04.196Z,7.43
2023-05-17T10:47:35.068Z,5.55
2023-05-17T10:50:03.428Z,5.90
2023-05-17T10:52:30.940Z,7.00
2023-05-17T10:55:00.355Z,7.57
2023-05-17T10:57:46.778Z,6.90
2023-05-17T11:00:22.245Z,5.40
2023-05-17T11:02:50.887Z,6.15
2023-05-17T11:05:27.165Z,6.90
2023-05-17T11:08:17.371Z,6.03
2023-05-17T11:11:14.335Z,5.05
2023-05-17T11:13:46.305Z,5.72
2023-05-17T11:16:18.133Z,5.45
2023-05-17T11:18:54.296Z,4.57
2023-05-17T11:21:22.959Z,5.40
2023-05-17T11:24:01.451Z,6.35
2023-05-17T11:26:37.972Z,5.75
2023-05-17T11:29:13.573Z,4.65
2023-05-17T11:31:45.354Z,5.60
2023-05-17T11:34:13.166Z,5.20
2023-05-17T11:36:53.434Z,5.80
2023-05-17T11:39:23.546Z,5.90
2023-05-17T11:41:55.807Z,5.88
2023-05-17T11:44:25.498Z,5.65
2023-05-17T11:47:00.656Z,5.72
2023-05-17T11:49:35.869Z,6.18
2023-05-17T11:52:06.191Z,5.55
2023-05-17T11:54:34.798Z,5.68
2023-05-17T11:57:04.021Z,5.90
2023-05-17T11:59:40.995Z,6.70
2023-05-17T12:02:08.709Z,6.78
2023-05-17T12:04:39.541Z,6.05
2023-05-17T12:07:10.986Z,8.18
2023-05-17T12:09:40.551Z,7.07
2023-05-17T12:12:08.861Z,6.50
2023-05-17T12:14:36.841Z,5.50
2023-05-17T12:17:09.289Z,5.13
2023-05-17T12:19:37.515Z,5.85
2023-05-17T12:22:12.584Z,4.65
2023-05-17T12:24:42.119Z,5.80
2023-05-17T12:27:10.779Z,5.57
2023-05-17T12:29:39.284Z,4.97
2023-05-17T12:32:09.006Z,5.65
2023-05-17T12:34:36.690Z,5.47
2023-05-17T12:37:04.669Z,5.18
2023-05-17T12:39:32.181Z,5.00
2023-05-17T12:42:01.651Z,4.78
2023-05-17T12:44:29.045Z,4.45
2023-05-17T12:46:57.896Z,5.28
2023-05-17T12:49:25.404Z,4.45
2023-05-17T12:51:52.918Z,5.15
2023-05-17T12:54:47.288Z,5.45
2023-05-17T12:57:16.349Z,5.40
2023-05-17T12:59:48.299Z,6.53
2023-05-17T13:02:16.497Z,5.50
2023-05-17T13:04:44.108Z,5.72
2023-05-17T13:07:11.592Z,5.40
2023-05-17T13:09:48.654Z,5.85
2023-05-17T13:12:21.709Z,5.57
2023-05-17T13:14:54.945Z,5.53
2023-05-17T13:17:27.741Z,5.20
2023-05-17T13:19:58.070Z,4.75
2023-05-17T13:22:25.974Z,4.82
2023-05-17T13:24:53.932Z,5.78
2023-05-17T13:27:21.393Z,5.78
2023-05-17T13:29:48.903Z,5.10
2023-05-17T13:32:16.460Z,5.82
2023-05-17T13:34:43.827Z,4.78
2023-05-17T13:37:12.862Z,5.55
2023-05-17T13:39:41.707Z,4.88
2023-05-17T13:42:10.678Z,5.63
2023-05-17T13:44:38.588Z,5.93
2023-05-17T13:47:06.565Z,5.65
2023-05-17T13:49:33.960Z,5.22
2023-05-17T13:52:01.396Z,5.35
2023-05-17T13:54:28.743Z,5.47
2023-05-17T13:56:57.571Z,5.22
2023-05-17T13:59:25.621Z,5.78
2023-05-17T14:01:53.805Z,4.80
2023-05-17T14:04:21.481Z,5.70
2023-05-17T14:06:51.152Z,5.30
2023-05-17T14:09:20.454Z,6.68
2023-05-17T14:11:48.004Z,6.68
2023-05-17T14:14:15.640Z,6.68
2023-05-17T14:16:42.982Z,7.15
2023-05-17T14:19:10.392Z,6.55
2023-05-17T14:21:37.953Z,6.88
2023-05-17T14:24:06.757Z,7.43
2023-05-17T14:26:34.123Z,8.95
2023-05-17T14:29:01.635Z,7.95
2023-05-17T14:31:30.245Z,8.15
2023-05-17T14:33:57.973Z,10.02
2023-05-17T14:36:25.406Z,9.95
2023-05-17T14:38:52.836Z,8.43
2023-05-17T14:41:20.303Z,9.43
2023-05-17T14:43:47.665Z,8.32
2023-05-17T14:46:15.069Z,8.52
2023-05-17T14:48:42.487Z,8.20
2023-05-17T14:51:09.887Z,9.35
2023-05-17T14:53:37.464Z,9.32
2023-05-17T14:56:05.064Z,8.43
2023-05-17T14:58:32.371Z,9.05
2023-05-17T15:01:05.307Z,8.80
2023-05-17T15:03:35.292Z,9.32
2023-05-17T15:06:06.913Z,10.05
2023-05-17T15:08:36.159Z,8.60
2023-05-17T15:11:03.595Z,9.65
2023-05-17T15:13:31.540Z,9.55
2023-05-17T15:15:58.917Z,8.45
2023-05-17T15:18:26.348Z,9.80
2023-05-17T15:20:53.817Z,6.35
2023-05-17T15:23:21.234Z,8.20
2023-05-17T15:25:48.562Z,7.97
2023-05-17T15:28:16.291Z,7.75
2023-05-17T15:30:44.134Z,8.25
2023-05-17T15:33:11.959Z,9.45
2023-05-17T15:35:43.289Z,11.10
2023-05-17T15:38:10.974Z,11.18
2023-05-17T15:40:38.386Z,9.75
2023-05-17T15:43:05.745Z,9.90
2023-05-17T15:45:33.398Z,10.45
2023-05-17T15:48:02.226Z,11.48
2023-05-17T15:50:29.788Z,12.23
2023-05-17T15:52:57.198Z,10.38
2023-05-17T15:55:24.770Z,11.43
2023-05-17T15:57:52.201Z,10.82
2023-05-17T16:00:20.315Z,9.65
2023-05-17T16:02:47.988Z,9.82
2023-05-17T16:05:15.754Z,8.45
2023-05-17T16:07:43.133Z,8.40
2023-05-17T16:10:11.972Z,8.48
2023-05-17T16:12:39.431Z,10.00
2023-05-17T16:15:09.540Z,8.98
2023-05-17T16:17:38.395Z,7.78
2023-05-17T16:20:06.635Z,8.15
2023-05-17T16:22:35.027Z,6.95
2023-05-17T16:25:02.524Z,6.22
2023-05-17T16:27:29.934Z,6.60
2023-05-17T16:29:57.595Z,7.28
2023-05-17T16:32:25.145Z,6.40
2023-05-17T16:34:52.564Z,6.32
2023-05-17T16:37:19.919Z,5.55
2023-05-17T16:39:47.657Z,7.28
2023-05-17T16:42:15.210Z,7.30
2023-05-17T16:44:43.147Z,7.20
2023-05-17T16:47:11.985Z,7.63
2023-05-17T16:49:41.126Z,6.85
2023-05-17T16:52:09.088Z,7.22
2023-05-17T16:54:42.188Z,6.90
2023-05-17T16:57:09.633Z,6.80
2023-05-17T16:59:52.088Z,7.00
2023-05-17T17:02:38.270Z,6.75
2023-05-17T17:05:06.357Z,6.18
2023-05-17T17:07:34.222Z,7.07
2023-05-17T17:10:08.222Z,6.28
2023-05-17T17:12:35.723Z,5.60
2023-05-17T17:15:05.077Z,6.28
2023-05-17T17:17:59.697Z,6.93
2023-05-17T17:20:27.547Z,6.72
2023-05-17T17:22:58.020Z,7.05
2023-05-17T17:25:25.405Z,7.10
2023-05-17T17:27:53.494Z,7.00
2023-05-17T17:31:22.015Z,7.05
2023-05-17T17:38:23.424Z,5.78
2023-05-17T17:49:06.324Z,5.60
2023-05-17T17:51:33.704Z,5.90
2023-05-17T17:54:04.693Z,5.63
2023-05-17T17:56:32.893Z,7.00
2023-05-17T17:59:00.382Z,6.95
2023-05-17T18:01:29.744Z,5.53
2023-05-17T18:04:33.075Z,5.25
2023-05-17T18:07:03.508Z,4.85
2023-05-17T18:09:31.002Z,4.70
2023-05-17T18:11:59.653Z,4.50
2023-05-17T18:14:27.159Z,5.43
2023-05-17T18:16:54.660Z,4.43
2023-05-17T18:19:22.569Z,4.65
2023-05-17T18:21:50.812Z,4.75
2023-05-17T18:24:18.480Z,6.75
2023-05-17T18:26:45.882Z,4.97
2023-05-17T18:29:13.239Z,4.30
2023-05-17T18:31:40.720Z,4.88
2023-05-17T18:34:08.342Z,3.50
2023-05-17T18:36:35.769Z,3.83
2023-05-17T18:39:03.430Z,3.72
2023-05-17T18:41:30.986Z,4.20
2023-05-17T18:44:01.887Z,4.95
2023-05-17T18:46:29.767Z,4.65
2023-05-17T18:48:57.633Z,4.70
2023-05-17T18:51:25.482Z,5.22
2023-05-17T18:53:53.760Z,4.35
2023-05-17T18:56:25.017Z,4.97
2023-05-17T18:58:55.074Z,6.03
2023-05-17T19:01:22.960Z,4.72
2023-05-17T19:03:57.197Z,4.57
2023-05-17T19:06:25.707Z,5.13
2023-05-17T19:08:53.403Z,5.10
2023-05-17T19:11:22.790Z,4.90
2023-05-17T19:13:50.673Z,5.50
2023-05-17T19:16:18.145Z,4.65
2023-05-17T19:18:45.862Z,5.03
2023-05-17T19:21:13.899Z,3.97
2023-05-17T19:23:42.826Z,6.10
2023-05-17T19:26:10.231Z,4.25
2023-05-17T19:28:37.769Z,4.82
2023-05-17T19:31:05.289Z,5.03
2023-05-17T19:33:34.112Z,3.95
2023-05-17T19:36:01.697Z,4.60
2023-05-17T19:38:33.441Z,4.30
2023-05-17T19:41:16.546Z,5.28
2023-05-17T19:43:50.504Z,4.38
2023-05-17T19:46:18.385Z,4.65
2023-05-17T19:48:46.842Z,6.05
2023-05-17T19:51:14.249Z,5.22
2023-05-17T19:53:52.570Z,5.15
2023-05-17T19:56:22.949Z,5.00
2023-05-17T19:58:55.499Z,4.82
2023-05-17T20:01:23.243Z,4.70
2023-05-17T20:03:51.298Z,4.47
2023-05-17T20:06:18.884Z,4.65
2023-05-17T20:08:46.987Z,5.35
2023-05-17T20:11:14.969Z,5.10
2023-05-17T20:13:42.427Z,5.07
2023-05-17T20:16:12.946Z,5.00
2023-05-17T20:18:44.963Z,5.43
2023-05-17T20:21:15.966Z,6.05
2023-05-17T20:23:44.804Z,5.50
2023-05-17T20:26:16.786Z,5.82
2023-05-17T20:28:45.296Z,6.20
2023-05-17T20:31:13.996Z,5.75
2023-05-17T20:33:41.461Z,5.55
2023-05-17T20:36:12.052Z,5.05
2023-05-17T20:43:47.662Z,4.95
2023-05-17T20:46:16.010Z,5.63
2023-05-17T20:48:46.050Z,5.18
2023-05-17T20:51:14.040Z,5.35
2023-05-17T20:53:41.583Z,5.78
2023-05-17T20:56:09.248Z,5.72
2023-05-17T20:59:18.888Z,5.45
2023-05-17T21:10:31.932Z,4.07
2023-05-17T21:13:01.878Z,5.03
2023-05-17T21:15:29.306Z,5.18
2023-05-17T21:17:56.720Z,4.53
2023-05-17T21:20:24.936Z,4.45
2023-05-17T21:22:52.529Z,4.70
2023-05-17T21:25:20.015Z,4.25
2023-05-17T21:27:47.519Z,4.30
2023-05-17T21:30:15.032Z,4.50
2023-05-17T21:32:42.467Z,4.88
2023-05-17T21:35:10.250Z,5.22
2023-05-17T21:37:40.251Z,5.88
2023-05-17T21:40:08.551Z,5.63
2023-05-17T21:42:36.251Z,5.80
2023-05-17T21:45:03.921Z,5.68
2023-05-17T21:47:31.275Z,5.45
2023-05-17T21:49:58.690Z,5.22
2023-05-17T21:52:26.085Z,4.32
2023-05-17T21:54:53.804Z,5.57
2023-05-17T21:57:21.350Z,4.28
2023-05-17T21:59:49.499Z,4.38
2023-05-17T22:02:17.348Z,4.38
2023-05-17T22:04:44.764Z,4.70
2023-05-17T22:07:13.338Z,4.43
2023-05-17T22:09:40.761Z,4.82
2023-05-17T22:12:09.343Z,4.50
2023-05-17T22:14:36.850Z,5.15
2023-05-17T22:17:08.657Z,4.88
2023-05-17T22:19:40.890Z,4.10
2023-05-17T22:22:08.663Z,4.15
2023-05-17T22:24:36.154Z,4.47
2023-05-17T22:27:04.064Z,4.30
2023-05-17T22:29:31.682Z,4.05
2023-05-17T22:31:59.234Z,4.47
2023-05-17T22:34:26.881Z,4.38
2023-05-17T22:36:55.128Z,4.50
2023-05-17T22:39:22.486Z,4.57
2023-05-17T22:41:49.935Z,4.15
2023-05-17T22:44:17.776Z,4.80
2023-05-17T22:46:46.826Z,4.50
2023-05-17T22:49:14.256Z,4.90
2023-05-17T22:51:42.590Z,4.57
2023-05-17T22:54:10.165Z,5.28
2023-05-17T22:56:37.552Z,3.55
2023-05-17T22:59:05.047Z,3.63
2023-05-17T23:01:32.451Z,3.40
2023-05-17T23:03:59.936Z,3.55
2023-05-17T23:06:27.420Z,4.20
2023-05-17T23:08:55.067Z,4.65
2023-05-17T23:11:22.414Z,3.65
2023-05-17T23:13:49.769Z,3.33
2023-05-17T23:16:17.239Z,3.53
2023-05-17T23:18:46.441Z,3.80
2023-05-17T23:21:14.274Z,3.47
2023-05-17T23:59:22.900Z,4.22
